TVS2867 DTTJ-LKPR
Flight info
| Callsign | TVS2867 |
|---|---|
| Flight time | N/A |
| Altitude | 37000 |
| Route | RALAK DCT PAN DCT PNZ DCT NIKOL DCT LIMRA DCT BUDEX DCT APRAQ |
| Aircraft | B738/M-SDE2E3FGHIRWXY/LB1 |
Departure
| Time | 2026-04-26 09:01 |
|---|---|
| Airport | Djerba Zarzis International Airport (DTTJ) |
Arrival
| Time | N/A |
|---|---|
| Airport | Václav Havel Airport Prague (LKPR) |
| Time | Latitude | Longitude | Altitude | Speed | Heading |
|---|---|---|---|---|---|
| 2026-04-26 08:29 | 33.87283 | 10.77431 | 22 ft | 0 kts | 134° |
| 2026-04-26 08:50 | 33.87286 | 10.77427 | 21 ft | 3 kts | 134° |
| 2026-04-26 08:50 | 33.87304 | 10.77404 | 22 ft | 4 kts | 134° |
| 2026-04-26 08:51 | 33.87347 | 10.77367 | 23 ft | 4 kts | 163° |
| 2026-04-26 08:51 | 33.87366 | 10.77362 | 21 ft | 0 kts | 178° |
| 2026-04-26 08:53 | 33.87332 | 10.77357 | 22 ft | 8 kts | 201° |
| 2026-04-26 08:54 | 33.87319 | 10.77315 | 21 ft | 3 kts | 309° |
| 2026-04-26 08:54 | 33.87341 | 10.77308 | 21 ft | 4 kts | 351° |
| 2026-04-26 08:54 | 33.87368 | 10.77276 | 21 ft | 7 kts | 279° |
| 2026-04-26 08:54 | 33.87367 | 10.77230 | 21 ft | 10 kts | 267° |
| 2026-04-26 08:55 | 33.87363 | 10.77123 | 20 ft | 14 kts | 267° |
| 2026-04-26 08:55 | 33.87360 | 10.77004 | 20 ft | 14 kts | 269° |
| 2026-04-26 08:55 | 33.87357 | 10.76891 | 20 ft | 13 kts | 268° |
| 2026-04-26 08:55 | 33.87354 | 10.76782 | 20 ft | 13 kts | 268° |
| 2026-04-26 08:56 | 33.87351 | 10.76676 | 19 ft | 13 kts | 268° |
| 2026-04-26 08:56 | 33.87348 | 10.76573 | 19 ft | 12 kts | 269° |
| 2026-04-26 08:56 | 33.87347 | 10.76472 | 19 ft | 12 kts | 268° |
| 2026-04-26 08:56 | 33.87343 | 10.76374 | 18 ft | 12 kts | 268° |
| 2026-04-26 08:57 | 33.87341 | 10.76279 | 18 ft | 11 kts | 268° |
| 2026-04-26 08:57 | 33.87338 | 10.76187 | 17 ft | 11 kts | 268° |
| 2026-04-26 08:57 | 33.87340 | 10.76097 | 17 ft | 11 kts | 281° |
| 2026-04-26 08:57 | 33.87351 | 10.76077 | 19 ft | 0 kts | 317° |
| 2026-04-26 08:58 | 33.87354 | 10.76074 | 18 ft | 2 kts | 317° |
| 2026-04-26 08:58 | 33.87377 | 10.76055 | 17 ft | 5 kts | 333° |
| 2026-04-26 08:59 | 33.87412 | 10.76046 | 18 ft | 5 kts | 358° |
| 2026-04-26 08:59 | 33.87448 | 10.76046 | 17 ft | 5 kts | 1° |
| 2026-04-26 08:59 | 33.87484 | 10.76051 | 17 ft | 5 kts | 20° |
| 2026-04-26 08:59 | 33.87499 | 10.76089 | 18 ft | 5 kts | 66° |
| 2026-04-26 09:00 | 33.87503 | 10.76117 | 18 ft | 0 kts | 88° |
| 2026-04-26 09:00 | 33.87504 | 10.76153 | 18 ft | 20 kts | 88° |
| 2026-04-26 09:00 | 33.87515 | 10.76571 | 19 ft | 79 kts | 88° |
| 2026-04-26 09:01 | 33.87538 | 10.77439 | 21 ft | 127 kts | 88° |
| 2026-04-26 09:01 | 33.87573 | 10.78657 | 33 ft | 163 kts | 87° |
| 2026-04-26 09:01 | 33.87624 | 10.80018 | 518 ft | 160 kts | 87° |
| 2026-04-26 09:01 | 33.87893 | 10.81352 | 896 ft | 169 kts | 52° |
| 2026-04-26 09:02 | 33.88840 | 10.82242 | 1443 ft | 179 kts | 28° |
| 2026-04-26 09:02 | 33.90075 | 10.82674 | 1990 ft | 194 kts | 14° |
| 2026-04-26 09:02 | 33.91462 | 10.83038 | 2344 ft | 209 kts | 15° |
| 2026-04-26 09:02 | 33.92912 | 10.83469 | 2720 ft | 215 kts | 26° |
| 2026-04-26 09:03 | 33.94151 | 10.84478 | 3076 ft | 222 kts | 45° |
| 2026-04-26 09:03 | 33.95302 | 10.85792 | 3369 ft | 234 kts | 44° |
| 2026-04-26 09:03 | 33.96554 | 10.87190 | 3577 ft | 254 kts | 44° |
| 2026-04-26 09:03 | 33.97873 | 10.88660 | 4075 ft | 262 kts | 43° |
| 2026-04-26 09:04 | 33.99205 | 10.90143 | 4650 ft | 266 kts | 43° |
| 2026-04-26 09:04 | 34.00576 | 10.91672 | 5219 ft | 271 kts | 42° |
| 2026-04-26 09:04 | 34.01947 | 10.93203 | 5856 ft | 272 kts | 41° |
| 2026-04-26 09:04 | 34.03337 | 10.94756 | 6501 ft | 273 kts | 41° |
| 2026-04-26 09:05 | 34.04741 | 10.96325 | 7089 ft | 277 kts | 40° |
| 2026-04-26 09:05 | 34.06163 | 10.97915 | 7670 ft | 281 kts | 40° |
| 2026-04-26 09:05 | 34.07606 | 10.99530 | 8290 ft | 284 kts | 40° |
| 2026-04-26 09:05 | 34.09060 | 11.01159 | 8923 ft | 287 kts | 39° |
| 2026-04-26 09:06 | 34.10536 | 11.02813 | 9562 ft | 291 kts | 39° |
| 2026-04-26 09:06 | 34.12026 | 11.04485 | 10196 ft | 295 kts | 38° |
| 2026-04-26 09:06 | 34.13559 | 11.06203 | 10535 ft | 310 kts | 38° |
| 2026-04-26 09:06 | 34.15192 | 11.08030 | 10728 ft | 329 kts | 39° |
| 2026-04-26 09:07 | 34.16891 | 11.09937 | 11175 ft | 338 kts | 39° |
| 2026-04-26 09:07 | 34.18622 | 11.11886 | 11769 ft | 342 kts | 38° |
| 2026-04-26 09:07 | 34.20369 | 11.13849 | 12412 ft | 345 kts | 38° |
| 2026-04-26 09:07 | 34.22139 | 11.15836 | 13019 ft | 350 kts | 38° |
| 2026-04-26 09:08 | 34.23936 | 11.17852 | 13650 ft | 354 kts | 38° |
| 2026-04-26 09:08 | 34.25753 | 11.19892 | 14252 ft | 359 kts | 38° |
| 2026-04-26 09:08 | 34.27588 | 11.21955 | 14884 ft | 362 kts | 38° |
| 2026-04-26 09:08 | 34.29431 | 11.24031 | 15552 ft | 363 kts | 38° |
| 2026-04-26 09:09 | 34.31258 | 11.26089 | 16212 ft | 365 kts | 38° |
| 2026-04-26 09:09 | 34.33129 | 11.28198 | 16850 ft | 368 kts | 38° |
| 2026-04-26 09:09 | 34.35010 | 11.30319 | 17493 ft | 371 kts | 38° |
| 2026-04-26 09:09 | 34.36903 | 11.32455 | 18122 ft | 374 kts | 38° |
| 2026-04-26 09:10 | 34.38810 | 11.34608 | 18708 ft | 377 kts | 38° |
| 2026-04-26 09:10 | 34.40737 | 11.36785 | 19223 ft | 380 kts | 38° |
| 2026-04-26 09:10 | 34.42679 | 11.38982 | 19720 ft | 384 kts | 38° |
| 2026-04-26 09:10 | 34.44645 | 11.41207 | 20221 ft | 388 kts | 39° |
| 2026-04-26 09:11 | 34.46630 | 11.43454 | 20727 ft | 392 kts | 39° |
| 2026-04-26 09:11 | 34.48631 | 11.45720 | 21208 ft | 396 kts | 39° |
| 2026-04-26 09:11 | 34.50698 | 11.47931 | 21683 ft | 396 kts | 32° |
| 2026-04-26 09:11 | 34.53063 | 11.49622 | 22160 ft | 393 kts | 20° |
| 2026-04-26 09:12 | 34.55603 | 11.50717 | 22634 ft | 391 kts | 8° |
| 2026-04-26 09:12 | 34.58273 | 11.51315 | 23108 ft | 391 kts | 5° |
| 2026-04-26 09:12 | 34.60973 | 11.51831 | 23580 ft | 395 kts | 4° |
| 2026-04-26 09:12 | 34.63703 | 11.52332 | 23991 ft | 398 kts | 4° |
| 2026-04-26 09:13 | 34.66454 | 11.52841 | 24401 ft | 400 kts | 4° |
| 2026-04-26 09:13 | 34.69211 | 11.53361 | 24823 ft | 402 kts | 4° |
| 2026-04-26 09:13 | 34.71977 | 11.53893 | 25246 ft | 404 kts | 4° |
| 2026-04-26 09:13 | 34.74764 | 11.54437 | 25641 ft | 406 kts | 4° |
| 2026-04-26 09:14 | 34.77560 | 11.54987 | 26017 ft | 409 kts | 4° |
| 2026-04-26 09:14 | 34.80385 | 11.55547 | 26394 ft | 411 kts | 4° |
| 2026-04-26 09:14 | 34.83218 | 11.56110 | 26766 ft | 414 kts | 4° |
| 2026-04-26 09:14 | 34.86064 | 11.56678 | 27134 ft | 416 kts | 4° |
| 2026-04-26 09:15 | 34.88936 | 11.57251 | 27495 ft | 418 kts | 4° |
| 2026-04-26 09:15 | 34.91810 | 11.57825 | 27844 ft | 421 kts | 4° |
| 2026-04-26 09:15 | 34.94674 | 11.58397 | 28182 ft | 423 kts | 4° |
| 2026-04-26 09:15 | 34.97587 | 11.58979 | 28528 ft | 425 kts | 4° |
| 2026-04-26 09:16 | 35.00526 | 11.59567 | 28867 ft | 428 kts | 4° |
| 2026-04-26 09:16 | 35.03471 | 11.60156 | 29192 ft | 430 kts | 4° |
| 2026-04-26 09:16 | 35.06430 | 11.60749 | 29519 ft | 432 kts | 4° |
| 2026-04-26 09:16 | 35.09401 | 11.61345 | 29832 ft | 434 kts | 4° |
| 2026-04-26 09:17 | 35.12396 | 11.61945 | 30142 ft | 436 kts | 4° |
| 2026-04-26 09:17 | 35.15396 | 11.62548 | 30414 ft | 438 kts | 4° |
| 2026-04-26 09:17 | 35.18410 | 11.63153 | 30677 ft | 440 kts | 4° |
| 2026-04-26 09:17 | 35.21434 | 11.63762 | 30944 ft | 441 kts | 4° |
| 2026-04-26 09:18 | 35.24466 | 11.64372 | 31196 ft | 442 kts | 4° |
| 2026-04-26 09:18 | 35.27508 | 11.64984 | 31438 ft | 444 kts | 5° |
| 2026-04-26 09:18 | 35.30561 | 11.65600 | 31742 ft | 444 kts | 5° |
| 2026-04-26 09:18 | 35.33599 | 11.66214 | 32101 ft | 442 kts | 5° |
| 2026-04-26 09:19 | 35.36630 | 11.66827 | 32447 ft | 441 kts | 5° |
| 2026-04-26 09:19 | 35.39657 | 11.67439 | 32753 ft | 440 kts | 5° |
| 2026-04-26 09:19 | 35.42643 | 11.68042 | 33030 ft | 441 kts | 5° |
| 2026-04-26 09:19 | 35.45671 | 11.68654 | 33329 ft | 440 kts | 5° |
| 2026-04-26 09:20 | 35.48690 | 11.69265 | 33624 ft | 440 kts | 5° |
| 2026-04-26 09:20 | 35.51705 | 11.69876 | 33894 ft | 440 kts | 5° |
| 2026-04-26 09:20 | 35.54727 | 11.70488 | 34159 ft | 440 kts | 5° |
| 2026-04-26 09:20 | 35.57743 | 11.71100 | 34388 ft | 439 kts | 5° |
| 2026-04-26 09:21 | 35.60758 | 11.71712 | 34614 ft | 439 kts | 5° |
| 2026-04-26 09:21 | 35.63773 | 11.72325 | 34838 ft | 439 kts | 5° |
| 2026-04-26 09:21 | 35.66795 | 11.72939 | 35041 ft | 439 kts | 5° |
| 2026-04-26 09:21 | 35.69806 | 11.73552 | 35257 ft | 439 kts | 5° |
| 2026-04-26 09:22 | 35.72823 | 11.74166 | 35479 ft | 438 kts | 5° |
| 2026-04-26 09:22 | 35.75832 | 11.74779 | 35671 ft | 439 kts | 5° |
| 2026-04-26 09:22 | 35.78853 | 11.75396 | 35862 ft | 439 kts | 5° |
| 2026-04-26 09:22 | 35.81862 | 11.76010 | 36059 ft | 439 kts | 5° |